Time;durP1;ratioP1;P1;durP2;ratioP2;P2;SDS_P1;SDS_P2;PMS_P1;PMS_P2;Temp;Humidity;BMP_temperature;BMP_pressure;BME280_temperature;BME280_humidity;BME280_pressure;Samples;Min_cycle;Max_cycle;Signal;HPM_P1;HPM_P2
2024/04/15 00:01:08;;;;;;;7.70;2.10;;;9.30;99.90;;;;;;5427402;26;20485;-64
2024/04/15 00:03:38;;;;;;;8.90;2.53;;;9.30;99.90;;;;;;5425896;26;20481;-64
2024/04/15 00:06:06;;;;;;;6.00;1.90;;;9.30;99.90;;;;;;5423418;26;20490;-64
2024/04/15 00:08:38;;;;;;;8.03;1.87;;;9.30;99.90;;;;;;5426707;26;20514;-63
2024/04/15 00:11:06;;;;;;;8.57;1.83;;;9.30;99.90;;;;;;5425185;26;20490;-64
2024/04/15 00:13:36;;;;;;;7.37;2.10;;;9.30;99.90;;;;;;5426900;26;20548;-64
2024/04/15 00:16:08;;;;;;;5.93;2.00;;;9.30;99.90;;;;;;5425556;26;20477;-64
2024/04/15 00:18:39;;;;;;;6.47;2.30;;;9.30;99.90;;;;;;5424733;26;21074;-64
2024/04/15 00:21:10;;;;;;;5.53;2.13;;;9.30;99.90;;;;;;5416131;26;23169;-64
2024/04/15 00:23:43;;;;;;;5.77;2.20;;;9.30;99.90;;;;;;5424803;26;20542;-64
2024/04/15 00:26:10;;;;;;;7.10;2.00;;;9.20;99.90;;;;;;5425054;26;20494;-63
2024/04/15 00:28:40;;;;;;;7.43;2.30;;;9.20;99.90;;;;;;5422887;26;20492;-64
2024/04/15 00:31:07;;;;;;;7.07;2.23;;;9.20;99.90;;;;;;5426771;26;20524;-64
2024/04/15 00:33:37;;;;;;;8.20;2.30;;;9.20;99.90;;;;;;5428633;26;21042;-64
2024/04/15 00:36:04;;;;;;;4.63;1.90;;;9.20;99.90;;;;;;5428297;26;20485;-64
2024/04/15 00:38:34;;;;;;;5.17;2.00;;;9.30;99.90;;;;;;5423283;26;21021;-63
2024/04/15 00:41:04;;;;;;;7.30;2.10;;;9.30;99.90;;;;;;5422890;26;20537;-64
2024/04/15 00:43:34;;;;;;;7.10;2.10;;;9.20;99.90;;;;;;5427000;26;20496;-65
2024/04/15 00:46:01;;;;;;;6.20;2.23;;;9.20;99.90;;;;;;5430835;26;21088;-64
2024/04/15 00:48:31;;;;;;;5.87;2.10;;;9.20;99.90;;;;;;5422283;26;20520;-63
2024/04/15 00:50:58;;;;;;;5.40;1.97;;;9.20;99.90;;;;;;5427731;26;20539;-64
2024/04/15 00:53:28;;;;;;;6.67;1.80;;;9.20;99.90;;;;;;5428277;26;21105;-64
2024/04/15 00:55:58;;;;;;;6.90;2.53;;;9.20;99.90;;;;;;5427504;26;20532;-64
2024/04/15 00:58:31;;;;;;;5.50;2.20;;;9.20;99.90;;;;;;5426825;26;20486;-63
2024/04/15 01:00:59;;;;;;;5.53;1.70;;;9.20;99.90;;;;;;5426857;26;20482;-64
2024/04/15 01:03:29;;;;;;;2.73;1.70;;;9.20;99.90;;;;;;5425742;26;20477;-64
2024/04/15 01:05:57;;;;;;;5.30;1.43;;;9.20;99.90;;;;;;5427415;26;20529;-63
2024/04/15 01:08:26;;;;;;;6.23;1.83;;;9.20;99.90;;;;;;5429242;26;20478;-64
2024/04/15 01:10:54;;;;;;;7.10;1.90;;;9.20;99.90;;;;;;5428201;26;20474;-64
2024/04/15 01:13:32;;;;;;;3.80;1.83;;;9.20;99.90;;;;;;5423385;26;20527;-63
2024/04/15 01:16:00;;;;;;;7.00;2.17;;;9.20;99.90;;;;;;5422932;26;20478;-64
2024/04/15 01:18:31;;;;;;;6.90;2.30;;;9.20;99.90;;;;;;5428616;26;20593;-64
2024/04/15 01:20:58;;;;;;;5.23;2.53;;;9.20;99.90;;;;;;5422229;26;20495;-63
2024/04/15 01:23:31;;;;;;;4.33;2.07;;;9.10;99.90;;;;;;5418267;26;20552;-64
2024/04/15 01:26:01;;;;;;;3.70;1.97;;;9.10;99.90;;;;;;5423507;26;20539;-65
2024/04/15 01:28:31;;;;;;;7.70;1.97;;;9.10;99.90;;;;;;5420951;26;20855;-63
2024/04/15 01:30:58;;;;;;;5.00;2.40;;;9.10;99.90;;;;;;5421403;26;20525;-64
2024/04/15 01:33:28;;;;;;;6.07;2.10;;;9.00;99.90;;;;;;5424293;26;21081;-64
2024/04/15 01:35:55;;;;;;;5.20;1.67;;;9.00;99.90;;;;;;5423645;26;21102;-64
2024/04/15 01:38:25;;;;;;;6.10;2.20;;;9.00;99.90;;;;;;5418403;26;20524;-64
2024/04/15 01:40:52;;;;;;;12.07;4.03;;;9.00;99.90;;;;;;5423823;26;20474;-64
2024/04/15 01:43:24;;;;;;;10.40;2.37;;;8.90;99.90;;;;;;5414816;26;20602;-64
2024/04/15 01:45:52;;;;;;;8.70;3.90;;;8.90;99.90;;;;;;5422424;26;20485;-64
2024/04/15 01:48:22;;;;;;;5.37;2.17;;;8.80;99.90;;;;;;5423888;26;20482;-64
2024/04/15 01:50:49;;;;;;;8.83;2.73;;;8.70;99.90;;;;;;5420535;26;20474;-64
2024/04/15 01:53:26;;;;;;;6.10;2.43;;;8.70;99.90;;;;;;5427460;26;20518;-65
2024/04/15 01:55:53;;;;;;;5.37;2.07;;;8.70;99.90;;;;;;5425657;26;20511;-63
2024/04/15 02:03:48;;;;;;;3.90;2.00;;;8.50;99.90;;;;;;5399561;26;20780;-64
2024/04/15 02:06:15;;;;;;;4.33;2.00;;;8.50;99.90;;;;;;5401869;26;20487;-63
2024/04/15 02:08:45;;;;;;;7.43;1.90;;;8.40;99.90;;;;;;5392897;26;21027;-64
2024/04/15 02:11:12;;;;;;;5.37;2.30;;;8.40;99.90;;;;;;5363606;26;20491;-64
2024/04/15 02:13:42;;;;;;;8.63;2.50;;;8.30;99.90;;;;;;5371580;26;20484;-64
2024/04/15 02:16:09;;;;;;;7.03;2.30;;;8.30;99.90;;;;;;5362206;21;20501;-65
2024/04/15 02:18:39;;;;;;;6.83;2.40;;;8.30;99.90;;;;;;5318996;26;20956;-65
2024/04/15 02:21:10;;;;;;;5.50;2.13;;;8.20;99.90;;;;;;5320600;26;20529;-65
2024/04/15 02:23:39;;;;;;;6.97;2.70;;;8.30;99.90;;;;;;5319829;26;20533;-65
2024/04/15 02:26:07;;;;;;;5.80;2.57;;;8.20;99.90;;;;;;5324126;26;20497;-66
2024/04/15 02:28:36;;;;;;;8.33;2.30;;;8.20;99.90;;;;;;5309299;26;20612;-64
2024/04/15 02:31:04;;;;;;;4.60;2.10;;;8.10;99.90;;;;;;5316694;26;20541;-65
2024/04/15 02:33:33;;;;;;;4.53;2.10;;;8.10;99.90;;;;;;5319602;26;20499;-65
2024/04/15 02:36:01;;;;;;;4.80;2.03;;;8.00;99.90;;;;;;5321581;26;20553;-68
2024/04/15 02:38:33;;;;;;;7.53;2.53;;;8.00;99.90;;;;;;5336193;26;20497;-67
2024/04/15 02:41:00;;;;;;;7.77;2.40;;;8.00;99.90;;;;;;5355485;26;20474;-68
2024/04/15 02:43:30;;;;;;;4.53;2.07;;;8.00;99.90;;;;;;5354725;26;20480;-68
2024/04/15 02:45:57;;;;;;;3.60;2.00;;;8.00;99.90;;;;;;5353890;26;20488;-68
2024/04/15 02:48:28;;;;;;;5.37;2.00;;;7.90;99.90;;;;;;5352160;26;20507;-66
2024/04/15 02:50:55;;;;;;;5.10;2.57;;;7.90;99.90;;;;;;5355507;26;20525;-65
2024/04/15 02:53:25;;;;;;;6.50;2.33;;;7.90;99.90;;;;;;5354672;26;20725;-65
2024/04/15 02:55:54;;;;;;;8.00;2.43;;;7.80;99.90;;;;;;5358406;26;20481;-63
2024/04/15 02:58:24;;;;;;;5.97;2.63;;;7.80;99.90;;;;;;5351398;26;20839;-63
2024/04/15 03:00:51;;;;;;;6.20;2.60;;;7.80;99.90;;;;;;5355429;26;20484;-64
2024/04/15 03:03:21;;;;;;;5.97;2.50;;;7.80;99.90;;;;;;5356138;26;21025;-64
2024/04/15 03:05:49;;;;;;;4.33;1.90;;;7.80;99.90;;;;;;5349455;26;20547;-62
2024/04/15 03:08:19;;;;;;;4.93;1.83;;;7.80;99.90;;;;;;5355261;26;20488;-64
2024/04/15 03:10:46;;;;;;;3.63;1.93;;;7.80;99.90;;;;;;5356551;26;20493;-63
2024/04/15 03:13:18;;;;;;;7.03;2.10;;;7.80;99.90;;;;;;5356179;26;20540;-63
2024/04/15 03:15:52;;;;;;;5.37;2.07;;;7.80;99.90;;;;;;5358953;26;20494;-63
2024/04/15 03:18:22;;;;;;;4.80;2.07;;;7.80;99.90;;;;;;5349959;26;20497;-62
2024/04/15 03:20:49;;;;;;;6.53;2.33;;;7.80;99.90;;;;;;5352314;26;20496;-63
2024/04/15 03:23:19;;;;;;;4.13;2.00;;;7.80;99.90;;;;;;5355230;26;20531;-65
2024/04/15 03:25:46;;;;;;;5.13;2.43;;;7.70;99.90;;;;;;5351118;26;20496;-66
2024/04/15 03:28:19;;;;;;;12.90;2.37;;;7.70;99.90;;;;;;5353471;26;20884;-66
2024/04/15 03:30:46;;;;;;;4.40;2.10;;;7.70;99.90;;;;;;5350608;26;20537;-66
2024/04/15 03:33:16;;;;;;;6.13;2.00;;;7.60;99.90;;;;;;5354556;26;20603;-66
2024/04/15 03:35:44;;;;;;;9.03;3.17;;;7.60;99.90;;;;;;5355819;26;20466;-63
2024/04/15 03:38:14;;;;;;;3.60;2.13;;;7.60;99.90;;;;;;5353268;26;20939;-63
2024/04/15 03:40:43;;;;;;;3.53;2.10;;;7.60;99.90;;;;;;5348812;26;20486;-62
2024/04/15 03:43:11;;;;;;;8.27;2.00;;;7.50;99.90;;;;;;5356228;26;20576;-63
2024/04/15 03:45:44;;;;;;;5.57;2.43;;;7.50;99.90;;;;;;5358539;26;20551;-64
2024/04/15 03:48:11;;;;;;;4.53;2.73;;;7.50;99.90;;;;;;5358444;26;20588;-64
2024/04/15 03:50:41;;;;;;;8.03;2.23;;;7.40;99.90;;;;;;5353099;26;20549;-64
2024/04/15 03:53:08;;;;;;;7.10;2.10;;;7.40;99.90;;;;;;5355122;26;20546;-67
2024/04/15 03:55:38;;;;;;;6.23;2.40;;;7.40;99.90;;;;;;5355838;26;21044;-64
2024/04/15 03:58:05;;;;;;;6.53;2.77;;;7.30;99.90;;;;;;5352260;26;20872;-64
2024/04/15 04:00:35;;;;;;;7.70;2.83;;;7.30;99.90;;;;;;5352392;26;20536;-64
2024/04/15 04:03:05;;;;;;;6.10;2.20;;;7.20;99.90;;;;;;5342207;26;20487;-65
2024/04/15 04:05:35;;;;;;;7.93;2.40;;;7.20;99.90;;;;;;5357863;26;20568;-64
2024/04/15 04:08:02;;;;;;;4.57;2.40;;;7.20;99.90;;;;;;5355970;26;20560;-64
2024/04/15 04:10:32;;;;;;;7.50;3.07;;;7.20;99.90;;;;;;5356516;26;21225;-63
2024/04/15 04:12:59;;;;;;;5.00;2.27;;;7.20;99.90;;;;;;5353905;26;20547;-63
2024/04/15 04:15:29;;;;;;;6.07;2.40;;;7.20;99.90;;;;;;5355965;26;20525;-64
2024/04/15 04:17:56;;;;;;;4.70;2.63;;;7.20;99.90;;;;;;5349389;26;20488;-64
2024/04/15 04:20:28;;;;;;;5.50;2.80;;;7.10;99.90;;;;;;5352616;26;20480;-64
2024/04/15 04:22:55;;;;;;;5.37;2.53;;;7.10;99.90;;;;;;5352069;26;20492;-63
2024/04/15 04:25:26;;;;;;;6.80;3.03;;;7.10;99.90;;;;;;5350487;26;20480;-64
2024/04/15 04:27:54;;;;;;;6.70;2.80;;;7.10;99.90;;;;;;5354522;26;20485;-62
2024/04/15 04:30:24;;;;;;;6.20;2.97;;;7.10;99.90;;;;;;5343540;26;20547;-64
2024/04/15 04:32:52;;;;;;;8.17;3.27;;;7.10;99.90;;;;;;5352949;26;20473;-64
2024/04/15 04:35:22;;;;;;;8.10;3.07;;;7.10;99.90;;;;;;5349513;26;20537;-63
2024/04/15 04:37:52;;;;;;;10.80;2.50;;;7.10;99.90;;;;;;5347740;26;21032;-64
2024/04/15 04:40:22;;;;;;;6.30;2.57;;;7.10;99.90;;;;;;5349904;26;20489;-64
2024/04/15 04:42:49;;;;;;;7.67;3.20;;;7.10;99.90;;;;;;5352494;26;21295;-63
2024/04/15 04:45:19;;;;;;;6.27;3.37;;;7.10;99.90;;;;;;5353213;26;20479;-63
2024/04/15 04:47:46;;;;;;;5.27;3.00;;;7.10;99.90;;;;;;5336425;26;20601;-63
2024/04/15 04:50:16;;;;;;;10.77;3.80;;;7.10;99.90;;;;;;5343597;26;20510;-63
2024/04/15 04:52:43;;;;;;;8.77;3.50;;;7.20;99.90;;;;;;5348346;26;20544;-64
2024/04/15 04:55:16;;;;;;;6.73;3.43;;;7.20;99.90;;;;;;5346891;26;20906;-63
2024/04/15 04:57:43;;;;;;;4.60;3.10;;;7.10;99.90;;;;;;5352542;26;20579;-63
2024/04/15 05:00:13;;;;;;;6.27;2.70;;;7.20;99.90;;;;;;5355837;26;20915;-66
2024/04/15 05:02:40;;;;;;;6.40;3.00;;;7.20;99.90;;;;;;5344065;26;20489;-63
2024/04/15 05:05:10;;;;;;;4.20;2.90;;;7.20;99.90;;;;;;5347407;26;20548;-64
2024/04/15 05:07:38;;;;;;;7.13;3.50;;;7.30;99.90;;;;;;5352378;26;20540;-63
2024/04/15 05:10:08;;;;;;;5.63;3.40;;;7.20;99.90;;;;;;5343825;26;21334;-63
2024/04/15 05:12:38;;;;;;;8.53;3.70;;;7.30;99.90;;;;;;5337642;26;20499;-63
2024/04/15 05:15:08;;;;;;;9.03;4.00;;;7.30;99.90;;;;;;5340432;26;20574;-62
2024/04/15 05:17:35;;;;;;;5.40;3.57;;;7.30;99.90;;;;;;5339609;26;20489;-66
2024/04/15 05:20:06;;;;;;;7.67;3.40;;;7.30;99.90;;;;;;5343185;26;20540;-63
2024/04/15 05:22:33;;;;;;;4.97;3.43;;;7.40;99.90;;;;;;5352834;26;20939;-63
2024/04/15 05:25:03;;;;;;;7.17;3.70;;;7.40;99.90;;;;;;5352101;26;20493;-63
2024/04/15 05:27:33;;;;;;;7.60;3.57;;;7.40;99.90;;;;;;5349484;26;20492;-64
2024/04/15 05:30:05;;;;;;;7.03;4.00;;;7.40;99.90;;;;;;5349521;26;20485;-63
2024/04/15 05:32:32;;;;;;;6.30;3.83;;;7.40;99.90;;;;;;5356223;26;20485;-63
2024/04/15 05:35:02;;;;;;;7.80;3.83;;;7.40;99.90;;;;;;5354997;26;20484;-65
2024/04/15 05:37:29;;;;;;;5.80;3.50;;;7.50;99.90;;;;;;5355180;26;20484;-66
2024/04/15 05:39:59;;;;;;;13.30;3.80;;;7.50;99.90;;;;;;5355066;26;20472;-65
2024/04/15 05:42:26;;;;;;;5.53;3.37;;;7.60;99.90;;;;;;5354338;26;20545;-63
2024/04/15 05:44:56;;;;;;;7.17;3.30;;;7.70;99.90;;;;;;5352225;26;20612;-64
2024/04/15 05:47:26;;;;;;;6.93;3.33;;;7.80;99.90;;;;;;5357467;26;20480;-69
2024/04/15 05:49:56;;;;;;;8.63;2.70;;;7.90;99.90;;;;;;5354229;26;20522;-64
2024/04/15 05:52:23;;;;;;;6.43;3.23;;;8.00;99.90;;;;;;5350978;26;20553;-64
2024/04/15 05:54:53;;;;;;;5.13;2.87;;;8.10;99.90;;;;;;5352420;26;20540;-64
2024/04/15 05:57:21;;;;;;;11.03;3.33;;;8.10;99.90;;;;;;5353762;26;20489;-63
2024/04/15 05:59:50;;;;;;;5.87;2.93;;;8.20;99.90;;;;;;5357559;26;20540;-64
2024/04/15 06:02:21;;;;;;;6.60;2.80;;;8.30;99.90;;;;;;5356129;26;20501;-64
2024/04/15 06:04:54;;;;;;;9.30;2.90;;;8.30;99.90;;;;;;5353447;26;20605;-64
2024/04/15 06:07:21;;;;;;;10.03;3.27;;;8.30;99.90;;;;;;5354753;26;20853;-64
2024/04/15 06:09:51;;;;;;;4.90;2.90;;;8.40;99.90;;;;;;5353910;26;20478;-64
2024/04/15 06:12:19;;;;;;;9.03;3.00;;;8.50;99.90;;;;;;5349838;26;20501;-63
2024/04/15 06:14:48;;;;;;;5.60;2.60;;;8.50;99.90;;;;;;5353396;26;20481;-64
2024/04/15 06:17:17;;;;;;;6.53;2.80;;;8.50;99.90;;;;;;5355887;26;20533;-64
2024/04/15 06:19:47;;;;;;;4.20;2.40;;;8.70;99.90;;;;;;5351906;26;21167;-64
2024/04/15 06:22:17;;;;;;;8.07;3.20;;;8.70;99.90;;;;;;5356928;26;20813;-64
2024/04/15 06:24:48;;;;;;;8.77;3.47;;;8.70;99.90;;;;;;5352615;26;20484;-63
2024/04/15 06:27:15;;;;;;;7.33;2.60;;;8.70;99.90;;;;;;5358646;26;20474;-64
2024/04/15 06:29:45;;;;;;;6.73;2.50;;;8.80;99.90;;;;;;5354399;26;20492;-63
2024/04/15 06:32:12;;;;;;;9.20;2.73;;;8.80;99.90;;;;;;5352883;26;20476;-63
2024/04/15 06:34:42;;;;;;;5.73;2.83;;;8.90;99.90;;;;;;5355352;26;21393;-64
2024/04/15 06:37:09;;;;;;;6.50;3.00;;;8.90;99.90;;;;;;5357582;26;20478;-63
2024/04/15 06:39:42;;;;;;;7.33;2.43;;;9.00;99.90;;;;;;5353464;26;21079;-64
2024/04/15 06:42:10;;;;;;;7.27;3.43;;;9.00;99.90;;;;;;5356263;26;20528;-63
2024/04/15 06:44:40;;;;;;;11.63;3.00;;;9.00;99.90;;;;;;5351386;26;20480;-64
2024/04/15 06:47:07;;;;;;;7.53;3.67;;;9.10;99.90;;;;;;5355187;26;20488;-64
2024/04/15 06:49:37;;;;;;;8.93;3.20;;;9.10;99.90;;;;;;5352600;26;20497;-64
2024/04/15 06:52:04;;;;;;;6.93;3.17;;;9.10;99.90;;;;;;5352697;26;20537;-63
2024/04/15 06:54:36;;;;;;;5.63;2.80;;;9.10;99.90;;;;;;5354734;26;20480;-64
2024/04/15 06:57:06;;;;;;;5.10;3.20;;;9.20;99.90;;;;;;5355927;26;20578;-64
2024/04/15 06:59:36;;;;;;;4.43;2.40;;;9.20;99.90;;;;;;5356309;26;20557;-63
2024/04/15 07:02:04;;;;;;;7.30;3.17;;;9.30;99.90;;;;;;5353263;26;20524;-64
2024/04/15 07:04:34;;;;;;;4.20;2.57;;;9.20;99.90;;;;;;5354088;26;20482;-63
2024/04/15 07:07:01;;;;;;;7.10;2.80;;;9.20;99.90;;;;;;5350001;26;20477;-66
2024/04/15 07:09:31;;;;;;;6.30;3.27;;;9.30;99.90;;;;;;5357832;26;20480;-63
2024/04/15 07:11:58;;;;;;;5.03;2.67;;;9.40;99.90;;;;;;5352550;26;20468;-64
2024/04/15 07:14:33;;;;;;;4.43;2.63;;;9.40;99.90;;;;;;5352690;26;20555;-64
2024/04/15 07:17:00;;;;;;;3.70;2.57;;;9.40;99.90;;;;;;5353740;26;20488;-63
2024/04/15 07:19:30;;;;;;;5.73;2.77;;;9.40;99.90;;;;;;5357101;26;20611;-66
2024/04/15 07:21:57;;;;;;;8.50;2.80;;;9.40;99.90;;;;;;5354349;26;20489;-64
2024/04/15 07:24:27;;;;;;;8.13;2.33;;;9.40;99.90;;;;;;5357339;26;20485;-64
2024/04/15 07:26:55;;;;;;;4.47;2.40;;;9.40;99.90;;;;;;5353507;26;21230;-63
2024/04/15 07:29:24;;;;;;;7.83;2.27;;;9.40;99.90;;;;;;5354955;26;20473;-64
2024/04/15 07:31:54;;;;;;;7.67;2.80;;;9.50;99.90;;;;;;5350150;26;20481;-64
2024/04/15 07:34:24;;;;;;;4.73;2.50;;;9.60;99.90;;;;;;5358667;26;20568;-64
2024/04/15 07:36:51;;;;;;;3.90;2.50;;;9.70;99.90;;;;;;5352577;26;20493;-64
2024/04/15 07:39:21;;;;;;;4.93;2.87;;;9.80;99.90;;;;;;5355488;26;20959;-63
2024/04/15 07:41:48;;;;;;;6.83;3.17;;;9.80;99.90;;;;;;5356366;26;21074;-64
2024/04/15 07:44:18;;;;;;;9.67;3.00;;;9.90;99.90;;;;;;5356741;26;21051;-64
2024/04/15 07:46:45;;;;;;;5.20;2.40;;;9.90;99.90;;;;;;5356144;26;20544;-64
2024/04/15 07:49:18;;;;;;;10.00;3.50;;;10.00;99.90;;;;;;5353689;26;20546;-63
2024/04/15 07:51:45;;;;;;;3.53;2.30;;;10.10;99.90;;;;;;5351444;26;20497;-63
2024/04/15 07:54:15;;;;;;;3.50;2.30;;;10.10;99.90;;;;;;5358839;26;20685;-63
2024/04/15 07:56:42;;;;;;;3.47;2.30;;;10.20;99.90;;;;;;5356864;26;20480;-62
2024/04/15 07:59:12;;;;;;;6.43;2.67;;;10.20;99.90;;;;;;5344763;26;20536;-63
2024/04/15 08:01:40;;;;;;;4.60;2.47;;;10.30;99.90;;;;;;5356772;26;20481;-63
2024/04/15 08:04:10;;;;;;;4.53;2.60;;;10.40;99.90;;;;;;5355151;26;20862;-64
2024/04/15 08:06:40;;;;;;;4.10;2.30;;;10.50;99.90;;;;;;5350402;26;20493;-64
2024/04/15 08:09:10;;;;;;;10.23;3.37;;;10.50;99.90;;;;;;5356379;26;21032;-64
2024/04/15 08:11:37;;;;;;;6.87;3.30;;;10.50;99.90;;;;;;5348948;26;20550;-63
2024/04/15 08:14:08;;;;;;;5.07;2.93;;;10.60;99.90;;;;;;5346142;26;20483;-64
2024/04/15 08:16:35;;;;;;;6.43;3.87;;;10.60;99.90;;;;;;5356297;26;20474;-62
2024/04/15 08:19:05;;;;;;;7.40;4.20;;;10.70;99.90;;;;;;5344386;26;20504;-64
2024/04/15 08:21:33;;;;;;;5.90;4.70;;;10.70;99.90;;;;;;5348524;26;20493;-64
2024/04/15 08:24:06;;;;;;;6.73;4.40;;;10.70;99.90;;;;;;5352628;26;20581;-65
2024/04/15 08:26:33;;;;;;;5.83;4.30;;;10.80;99.90;;;;;;5354364;26;20489;-64
2024/04/15 08:29:08;;;;;;;5.60;4.30;;;10.90;99.90;;;;;;5350358;26;20481;-64
2024/04/15 08:31:35;;;;;;;5.87;4.13;;;11.00;99.90;;;;;;5353487;26;20503;-64
2024/04/15 08:34:06;;;;;;;9.30;4.40;;;11.10;99.90;;;;;;5352800;26;20500;-64
2024/04/15 08:36:33;;;;;;;6.63;4.00;;;11.10;99.90;;;;;;5353497;26;20822;-66
2024/04/15 08:39:06;;;;;;;6.90;4.17;;;11.10;99.90;;;;;;5350689;26;20492;-66
2024/04/15 08:41:44;;;;;;;5.73;4.23;;;11.10;99.90;;;;;;5353208;26;21264;-66
2024/04/15 08:44:27;;;;;;;6.50;4.40;;;11.20;99.90;;;;;;5355926;26;20489;-65
2024/04/15 08:46:58;;;;;;;7.43;4.00;;;11.30;99.90;;;;;;5351998;26;20489;-66
2024/04/15 08:49:28;;;;;;;7.47;4.10;;;11.20;99.90;;;;;;5345044;26;20480;-63
2024/04/15 08:51:58;;;;;;;7.10;3.60;;;11.30;99.90;;;;;;5356522;26;20560;-65
2024/04/15 08:54:31;;;;;;;6.00;3.33;;;11.30;99.90;;;;;;5355276;26;20544;-65
2024/04/15 08:57:01;;;;;;;4.60;2.90;;;11.30;99.90;;;;;;5356088;26;20813;-64
2024/04/15 08:59:33;;;;;;;5.20;3.20;;;11.30;99.90;;;;;;5352592;26;21024;-65
2024/04/15 09:02:00;;;;;;;5.87;3.20;;;11.30;99.90;;;;;;5352100;26;20845;-65
2024/04/15 09:04:30;;;;;;;6.30;3.50;;;11.30;99.90;;;;;;5351011;26;21119;-66
2024/04/15 09:06:57;;;;;;;3.77;3.23;;;11.30;99.90;;;;;;5355091;26;20484;-65
2024/04/15 09:09:27;;;;;;;5.03;3.57;;;11.40;99.90;;;;;;5355739;26;20544;-65
2024/04/15 09:11:59;;;;;;;6.17;3.17;;;11.50;99.90;;;;;;5358054;26;21199;-64
2024/04/15 09:14:26;;;;;;;4.40;2.90;;;11.50;99.90;;;;;;5357369;26;20484;-64
2024/04/15 09:16:57;;;;;;;3.30;2.87;;;11.60;99.90;;;;;;5356394;26;21350;-66
2024/04/15 09:19:26;;;;;;;6.07;2.83;;;11.60;99.90;;;;;;5351065;26;20484;-65
2024/04/15 09:22:01;;;;;;;4.30;2.80;;;11.70;99.90;;;;;;5354910;26;20485;-66
2024/04/15 09:24:29;;;;;;;6.90;3.20;;;11.70;99.90;;;;;;5354237;26;20527;-65
2024/04/15 09:27:01;;;;;;;3.17;2.80;;;11.80;99.90;;;;;;5354989;26;20541;-66
2024/04/15 09:29:29;;;;;;;6.40;3.10;;;11.80;99.90;;;;;;5353508;26;20472;-65
2024/04/15 09:31:58;;;;;;;8.80;4.20;;;11.90;99.90;;;;;;5344657;26;21060;-65
2024/04/15 09:34:26;;;;;;;6.77;3.20;;;12.00;99.90;;;;;;5347024;26;20537;-65
2024/04/15 09:36:56;;;;;;;4.07;2.70;;;12.00;99.90;;;;;;5354924;26;21039;-66
2024/04/15 09:39:25;;;;;;;4.43;3.00;;;12.00;99.90;;;;;;5349709;26;20493;-65
2024/04/15 09:41:55;;;;;;;5.00;2.80;;;12.10;99.90;;;;;;5355853;26;20493;-66
2024/04/15 09:44:25;;;;;;;6.10;2.20;;;12.10;99.90;;;;;;5351843;26;21288;-65
2024/04/15 09:46:56;;;;;;;7.50;2.50;;;12.10;99.90;;;;;;5354773;26;20556;-65
2024/04/15 09:49:24;;;;;;;4.50;2.63;;;12.10;99.90;;;;;;5354235;26;20595;-66
2024/04/15 09:51:59;;;;;;;6.20;2.93;;;12.10;99.90;;;;;;5352727;26;21116;-66
2024/04/15 09:54:30;;;;;;;3.97;2.43;;;12.20;99.90;;;;;;5352324;26;20902;-65
2024/04/15 09:57:07;;;;;;;3.80;2.50;;;12.20;99.90;;;;;;5352701;26;20536;-66
2024/04/15 09:59:39;;;;;;;5.63;2.73;;;12.30;99.90;;;;;;5351752;26;20542;-66
2024/04/15 10:02:18;;;;;;;3.50;2.30;;;12.40;99.90;;;;;;5357727;26;20468;-66
2024/04/15 10:04:47;;;;;;;5.57;2.50;;;12.40;99.90;;;;;;5352024;26;20462;-65
2024/04/15 10:07:18;;;;;;;8.93;3.33;;;12.40;99.90;;;;;;5358330;26;20478;-65
2024/04/15 10:09:48;;;;;;;3.53;2.20;;;12.40;99.90;;;;;;5353744;26;20579;-66
2024/04/15 10:12:19;;;;;;;4.10;2.30;;;12.40;99.90;;;;;;5357936;26;20530;-66
2024/04/15 10:14:50;;;;;;;5.87;2.60;;;12.40;99.90;;;;;;5353787;26;20552;-64
2024/04/15 10:17:20;;;;;;;4.83;2.43;;;12.50;99.90;;;;;;5350881;26;20538;-63
2024/04/15 10:19:48;;;;;;;5.23;2.53;;;12.60;99.90;;;;;;5352216;26;20539;-63
2024/04/15 10:22:18;;;;;;;3.43;2.30;;;12.80;99.90;;;;;;5349885;26;20540;-64
2024/04/15 10:24:45;;;;;;;5.23;3.00;;;12.90;99.90;;;;;;5354173;26;20536;-64
2024/04/15 10:27:15;;;;;;;3.67;2.80;;;13.00;99.90;;;;;;5355981;26;20544;-64
2024/04/15 10:29:42;;;;;;;6.13;2.30;;;13.10;99.90;;;;;;5352569;26;20478;-64
2024/04/15 10:32:16;;;;;;;2.83;2.23;;;13.10;99.90;;;;;;5348965;26;21036;-64
2024/04/15 10:34:43;;;;;;;3.63;2.30;;;13.20;99.90;;;;;;5348448;26;20529;-63
2024/04/15 10:37:15;;;;;;;2.70;2.40;;;13.30;99.90;;;;;;5354904;26;20896;-64
2024/04/15 10:39:45;;;;;;;3.23;2.30;;;13.30;99.90;;;;;;5354249;26;20477;-64
2024/04/15 10:42:16;;;;;;;4.10;2.40;;;13.40;99.90;;;;;;5355732;26;20546;-64
2024/04/15 10:44:43;;;;;;;2.80;2.10;;;13.30;99.90;;;;;;5353555;26;20486;-63
2024/04/15 10:47:15;;;;;;;5.50;2.60;;;13.30;99.90;;;;;;5351919;26;20855;-64
2024/04/15 10:49:43;;;;;;;3.90;2.70;;;13.30;99.90;;;;;;5348748;26;20907;-64
2024/04/15 10:52:13;;;;;;;5.97;2.60;;;13.30;99.90;;;;;;5354065;26;20492;-64
2024/04/15 10:54:41;;;;;;;7.73;2.93;;;13.30;99.90;;;;;;5354918;26;20537;-64
2024/04/15 10:57:11;;;;;;;2.90;2.60;;;13.30;99.90;;;;;;5352987;26;20485;-65
2024/04/15 10:59:40;;;;;;;3.30;2.47;;;13.40;99.90;;;;;;5353816;26;20531;-64
2024/04/15 11:02:11;;;;;;;2.83;2.23;;;13.40;99.90;;;;;;5348693;26;20477;-64
2024/04/15 11:04:41;;;;;;;5.10;2.30;;;13.40;99.90;;;;;;5351103;26;20997;-64
2024/04/15 11:07:11;;;;;;;5.10;2.37;;;13.50;99.90;;;;;;5354018;26;20480;-64
2024/04/15 11:09:39;;;;;;;2.40;2.10;;;13.70;99.90;;;;;;5354502;26;20535;-64
2024/04/15 11:12:10;;;;;;;2.87;2.37;;;13.80;99.90;;;;;;5354550;26;20540;-64
2024/04/15 11:14:37;;;;;;;5.70;2.90;;;13.90;99.90;;;;;;5351726;26;20529;-65
2024/04/15 11:17:07;;;;;;;3.27;2.60;;;14.00;99.90;;;;;;5338220;26;20528;-64
2024/04/15 11:19:37;;;;;;;2.33;2.00;;;14.10;99.90;;;;;;5346191;26;20496;-64
2024/04/15 11:22:11;;;;;;;3.50;2.50;;;14.10;99.90;;;;;;5347823;26;20539;-64
2024/04/15 11:24:42;;;;;;;3.17;2.40;;;14.10;96.60;;;;;;5347627;26;20482;-63
2024/04/15 11:27:13;;;;;;;4.83;2.30;;;14.00;92.80;;;;;;5352754;26;20472;-64
2024/04/15 11:29:41;;;;;;;5.00;2.53;;;14.00;93.50;;;;;;5348524;26;20591;-64
2024/04/15 11:32:29;;;;;;;3.60;2.00;;;14.00;99.90;;;;;;5351036;26;20476;-64
2024/04/15 11:34:56;;;;;;;2.60;1.90;;;14.10;92.30;;;;;;5346529;26;20958;-63
2024/04/15 11:37:29;;;;;;;3.70;2.30;;;14.10;93.10;;;;;;5349533;26;20637;-64
2024/04/15 11:39:56;;;;;;;4.30;2.20;;;14.00;86.80;;;;;;5346766;26;20924;-64
2024/04/15 11:42:26;;;;;;;3.60;2.83;;;14.00;82.60;;;;;;5349086;26;20472;-66
2024/04/15 11:44:55;;;;;;;5.80;3.00;;;13.90;83.60;;;;;;5348414;26;21031;-66
2024/04/15 11:47:25;;;;;;;4.30;2.70;;;13.90;91.90;;;;;;5351881;26;20529;-65
2024/04/15 11:49:52;;;;;;;3.40;2.57;;;13.80;94.10;;;;;;5350822;26;20477;-65
2024/04/15 11:52:23;;;;;;;2.73;2.43;;;13.80;92.40;;;;;;5349542;26;20541;-66
2024/04/15 11:54:53;;;;;;;5.00;2.70;;;13.80;93.30;;;;;;5353917;26;20481;-66
2024/04/15 11:57:23;;;;;;;4.90;2.80;;;13.80;92.20;;;;;;5354008;26;23008;-66
2024/04/15 11:59:51;;;;;;;5.10;2.73;;;13.70;90.80;;;;;;5345127;26;21055;-65
2024/04/15 12:02:20;;;;;;;4.70;2.67;;;13.70;92.30;;;;;;5356934;26;20546;-65
2024/04/15 12:04:48;;;;;;;4.60;2.40;;;13.60;93.20;;;;;;5351168;26;20476;-63
2024/04/15 12:07:19;;;;;;;6.23;3.10;;;13.60;90.70;;;;;;5350622;26;20476;-64
2024/04/15 12:09:46;;;;;;;4.77;3.83;;;13.50;87.90;;;;;;5347885;26;20476;-65
2024/04/15 12:12:19;;;;;;;4.10;2.90;;;13.40;92.50;;;;;;5351883;26;20488;-64
2024/04/15 12:14:46;;;;;;;5.70;3.13;;;13.30;93.20;;;;;;5347965;26;20489;-64
2024/04/15 12:17:17;;;;;;;3.73;3.43;;;13.20;93.60;;;;;;5348887;26;20523;-64
2024/04/15 12:19:44;;;;;;;5.77;3.13;;;13.20;97.00;;;;;;5346801;26;20485;-64
2024/04/15 12:22:14;;;;;;;6.97;3.20;;;13.20;96.10;;;;;;5355455;26;20528;-64
2024/04/15 12:24:41;;;;;;;4.30;3.50;;;13.20;93.80;;;;;;5354316;26;20895;-65
2024/04/15 12:27:34;;;;;;;5.07;4.27;;;13.10;93.00;;;;;;5351882;26;21118;-63
2024/04/15 12:30:06;;;;;;;4.20;3.63;;;13.00;95.60;;;;;;5349913;26;20527;-64
2024/04/15 12:32:36;;;;;;;5.17;3.60;;;13.00;98.20;;;;;;5352903;26;20917;-62
2024/04/15 12:35:04;;;;;;;3.60;3.30;;;13.00;99.30;;;;;;5348816;26;22600;-64
2024/04/15 12:37:34;;;;;;;5.50;4.10;;;13.00;99.90;;;;;;5355895;26;20492;-63
2024/04/15 12:40:05;;;;;;;6.90;3.90;;;13.00;98.10;;;;;;5351733;26;20489;-63
2024/04/15 12:42:37;;;;;;;6.90;3.90;;;13.00;99.60;;;;;;5353422;26;20489;-63
2024/04/15 12:45:05;;;;;;;4.70;4.13;;;13.10;99.90;;;;;;5348698;26;20488;-65
2024/04/15 12:47:36;;;;;;;6.93;4.60;;;13.10;98.60;;;;;;5346987;26;20614;-63
2024/04/15 12:50:05;;;;;;;4.67;4.20;;;13.20;99.50;;;;;;5350368;26;20480;-64
2024/04/15 12:52:35;;;;;;;5.20;4.20;;;13.20;99.50;;;;;;5348265;26;20524;-64
2024/04/15 12:55:02;;;;;;;5.33;4.70;;;13.20;99.90;;;;;;5345789;26;20600;-65
2024/04/15 12:57:32;;;;;;;6.47;4.40;;;13.20;98.60;;;;;;5346572;26;20484;-63
2024/04/15 13:00:04;;;;;;;4.00;3.60;;;13.20;99.90;;;;;;5350393;26;21017;-63
2024/04/15 13:02:38;;;;;;;7.67;4.87;;;13.20;99.90;;;;;;5347972;26;20484;-62
2024/04/15 13:05:07;;;;;;;4.87;4.10;;;13.10;97.20;;;;;;5344036;26;20492;-62
2024/04/15 13:07:37;;;;;;;6.07;3.87;;;13.10;97.10;;;;;;5348682;26;21170;-64
2024/04/15 13:10:06;;;;;;;5.23;4.70;;;13.10;98.10;;;;;;5348021;26;20579;-64